createdAt,value
2018-05-14T00:01:19.858Z,14.10
2018-05-14T00:03:47.576Z,14.20
2018-05-14T00:06:15.181Z,14.20
2018-05-14T00:08:42.806Z,14.30
2018-05-14T00:11:10.429Z,14.50
2018-05-14T00:13:38.012Z,14.50
2018-05-14T00:16:05.614Z,14.40
2018-05-14T00:18:33.203Z,14.30
2018-05-14T00:21:00.817Z,14.30
2018-05-14T00:23:28.470Z,14.40
2018-05-14T00:25:56.027Z,14.40
2018-05-14T00:28:23.933Z,14.30
2018-05-14T00:30:51.518Z,14.20
2018-05-14T00:33:19.100Z,14.10
2018-05-14T00:35:46.989Z,14.10
2018-05-14T00:38:14.570Z,14.00
2018-05-14T00:40:42.769Z,14.10
2018-05-14T00:43:10.353Z,14.10
2018-05-14T00:45:37.925Z,14.20
2018-05-14T00:48:05.519Z,14.20
2018-05-14T00:50:33.213Z,14.10
2018-05-14T00:53:00.851Z,14.10
2018-05-14T00:55:28.449Z,14.50
2018-05-14T00:57:56.024Z,14.30
2018-05-14T01:00:23.633Z,14.30
2018-05-14T01:02:51.384Z,14.10
2018-05-14T01:05:18.960Z,14.10
2018-05-14T01:07:46.569Z,14.00
2018-05-14T01:10:14.179Z,14.00
2018-05-14T01:12:41.745Z,14.10
2018-05-14T01:15:10.099Z,13.80
2018-05-14T01:17:37.725Z,13.80
2018-05-14T01:20:05.602Z,13.80
2018-05-14T01:22:33.249Z,13.70
2018-05-14T01:25:02.812Z,13.70
2018-05-14T01:27:30.403Z,13.70
2018-05-14T01:29:57.992Z,13.70
2018-05-14T01:32:25.562Z,13.60
2018-05-14T01:34:53.232Z,13.60
2018-05-14T01:37:20.809Z,13.70
2018-05-14T01:39:48.403Z,13.70
2018-05-14T01:42:16.009Z,13.70
2018-05-14T01:44:43.589Z,13.80
2018-05-14T01:47:11.191Z,13.80
2018-05-14T01:49:38.771Z,13.90
2018-05-14T01:52:06.374Z,14.00
2018-05-14T01:54:33.940Z,13.90
2018-05-14T01:57:01.518Z,14.00
2018-05-14T01:59:29.973Z,14.00
2018-05-14T02:01:58.332Z,13.90
2018-05-14T02:04:25.921Z,13.90
2018-05-14T02:06:53.593Z,13.90
2018-05-14T02:09:21.093Z,13.90
2018-05-14T02:11:48.676Z,13.80
2018-05-14T02:14:16.268Z,13.70
2018-05-14T02:16:44.595Z,13.60
2018-05-14T02:19:12.185Z,13.60
2018-05-14T02:21:39.746Z,13.60
2018-05-14T02:24:07.363Z,13.60
2018-05-14T02:26:34.979Z,13.60
2018-05-14T02:29:02.590Z,13.60
2018-05-14T02:31:30.218Z,13.60
2018-05-14T02:33:58.592Z,13.60
2018-05-14T02:36:26.164Z,13.60
2018-05-14T02:38:53.739Z,13.60
2018-05-14T02:41:21.343Z,13.60
2018-05-14T02:43:48.920Z,13.70
2018-05-14T02:46:17.277Z,13.80
2018-05-14T02:48:44.840Z,13.80
2018-05-14T02:51:12.436Z,13.70
2018-05-14T02:53:40.223Z,13.60
2018-05-14T02:56:07.821Z,13.80
2018-05-14T02:58:35.391Z,13.80
2018-05-14T03:01:03.102Z,13.80
2018-05-14T03:03:30.763Z,13.80
2018-05-14T03:05:58.362Z,13.80
2018-05-14T03:08:25.956Z,13.80
2018-05-14T03:10:54.327Z,13.70
2018-05-14T03:13:21.891Z,13.70
2018-05-14T03:15:50.480Z,13.80
2018-05-14T03:18:18.055Z,13.80
2018-05-14T03:20:45.660Z,13.80
2018-05-14T03:23:13.236Z,13.90
2018-05-14T03:25:40.857Z,13.90
2018-05-14T03:28:08.606Z,13.80
2018-05-14T03:30:36.223Z,13.80
2018-05-14T03:33:03.976Z,13.80
2018-05-14T03:35:31.557Z,13.80
2018-05-14T03:37:59.188Z,13.70
2018-05-14T03:40:26.975Z,13.70
2018-05-14T03:42:54.577Z,13.70
2018-05-14T03:45:22.235Z,13.60
2018-05-14T03:47:49.854Z,13.60
2018-05-14T03:50:17.432Z,13.60
2018-05-14T03:52:46.093Z,13.60
2018-05-14T03:55:13.683Z,13.60
2018-05-14T03:57:41.284Z,13.60
2018-05-14T04:00:20.596Z,13.50
2018-05-14T04:02:59.836Z,13.50
2018-05-14T04:05:39.380Z,13.50
2018-05-14T04:08:07.066Z,13.60
2018-05-14T04:10:34.772Z,13.60
2018-05-14T04:13:04.079Z,13.60
2018-05-14T04:15:31.693Z,13.60
2018-05-14T04:17:59.312Z,13.50
2018-05-14T04:20:26.919Z,13.40
2018-05-14T04:22:54.499Z,13.30
2018-05-14T04:25:22.862Z,13.30
2018-05-14T04:27:50.440Z,13.30
2018-05-14T04:30:18.934Z,13.40
2018-05-14T04:32:46.460Z,13.40
2018-05-14T04:35:14.055Z,13.50
2018-05-14T04:37:41.659Z,13.60
2018-05-14T04:40:09.236Z,13.70
2018-05-14T04:42:37.768Z,13.90
2018-05-14T04:45:05.360Z,13.90
2018-05-14T04:47:33.157Z,13.90
2018-05-14T04:50:01.537Z,14.00
2018-05-14T04:52:29.104Z,14.00
2018-05-14T04:54:57.513Z,14.20
2018-05-14T04:57:25.137Z,14.20
2018-05-14T04:59:52.712Z,14.30
2018-05-14T05:02:20.515Z,14.30
2018-05-14T05:04:48.094Z,14.40
2018-05-14T05:07:15.703Z,14.20
2018-05-14T05:09:43.566Z,14.20
2018-05-14T05:12:11.934Z,14.00
2018-05-14T05:14:39.539Z,14.00
2018-05-14T05:17:07.425Z,14.00
2018-05-14T05:19:35.724Z,13.90
2018-05-14T05:22:03.446Z,13.90
2018-05-14T05:24:31.046Z,14.00
2018-05-14T05:26:58.624Z,14.10
2018-05-14T05:29:26.997Z,14.00
2018-05-14T05:31:54.827Z,14.00
2018-05-14T05:34:22.660Z,13.90
2018-05-14T05:36:50.428Z,14.00
2018-05-14T05:39:17.988Z,13.90
2018-05-14T05:41:45.576Z,13.80
2018-05-14T05:44:13.243Z,13.90
2018-05-14T05:46:40.855Z,14.10
2018-05-14T05:49:08.644Z,14.30
2018-05-14T05:51:36.238Z,14.50
2018-05-14T05:54:03.883Z,14.50
2018-05-14T05:56:31.453Z,14.60
2018-05-14T05:58:59.083Z,14.50
2018-05-14T06:01:26.876Z,14.60
2018-05-14T06:03:54.450Z,14.70
2018-05-14T06:06:22.107Z,14.70
2018-05-14T06:08:49.710Z,14.70
2018-05-14T06:11:17.476Z,14.80
2018-05-14T06:13:45.053Z,14.80
2018-05-14T06:16:12.694Z,14.80
2018-05-14T06:18:40.280Z,14.90
2018-05-14T06:21:07.888Z,15.00
2018-05-14T06:23:35.463Z,17.10
2018-05-14T06:26:03.090Z,15.20
2018-05-14T06:28:30.664Z,15.40
2018-05-14T06:30:58.245Z,15.40
2018-05-14T06:33:25.986Z,15.40
2018-05-14T06:35:53.578Z,15.50
2018-05-14T06:38:21.151Z,15.50
2018-05-14T06:40:48.736Z,15.70
2018-05-14T06:43:16.337Z,15.80
2018-05-14T06:45:43.919Z,16.00
2018-05-14T06:48:11.680Z,16.10
2018-05-14T06:50:39.277Z,16.20
2018-05-14T06:53:07.179Z,16.40
2018-05-14T06:55:34.757Z,16.50
2018-05-14T06:58:02.340Z,16.60
2018-05-14T07:00:29.953Z,16.60
2018-05-14T07:02:57.527Z,16.50
2018-05-14T07:05:25.148Z,16.50
2018-05-14T07:07:52.730Z,16.60
2018-05-14T07:10:20.331Z,14.80
2018-05-14T07:12:47.938Z,16.90
2018-05-14T07:15:15.556Z,17.00
2018-05-14T07:17:43.956Z,17.40
2018-05-14T07:20:11.562Z,17.30
2018-05-14T07:22:39.914Z,17.60
2018-05-14T07:25:07.692Z,17.60
2018-05-14T07:27:36.091Z,17.60
2018-05-14T07:30:03.798Z,17.60
2018-05-14T07:32:31.316Z,17.60
2018-05-14T07:34:58.892Z,17.50
2018-05-14T07:37:26.542Z,17.70
2018-05-14T07:39:54.207Z,17.60
2018-05-14T07:42:21.913Z,17.60
2018-05-14T07:44:49.506Z,17.80
2018-05-14T07:47:17.394Z,17.80
2018-05-14T07:49:45.056Z,17.70
2018-05-14T07:52:12.670Z,17.80
2018-05-14T07:54:40.283Z,18.10
2018-05-14T07:57:07.873Z,18.10
2018-05-14T07:59:35.485Z,18.20
2018-05-14T08:02:03.263Z,18.30
2018-05-14T08:04:30.846Z,18.40
2018-05-14T08:06:58.604Z,18.60
2018-05-14T08:09:26.185Z,18.50
2018-05-14T08:11:53.774Z,18.70
2018-05-14T08:14:21.345Z,18.80
2018-05-14T08:16:49.219Z,18.90
2018-05-14T08:19:16.895Z,19.10
2018-05-14T08:21:44.752Z,19.00
2018-05-14T08:24:12.388Z,19.00
2018-05-14T08:26:40.834Z,19.40
2018-05-14T08:29:08.403Z,19.30
2018-05-14T08:31:36.005Z,19.40
2018-05-14T08:34:03.575Z,19.50
2018-05-14T08:36:31.446Z,19.70
2018-05-14T08:38:59.017Z,19.70
2018-05-14T08:41:26.627Z,19.70
2018-05-14T08:43:54.384Z,19.80
2018-05-14T08:46:22.314Z,19.90
2018-05-14T08:48:49.920Z,19.90
2018-05-14T08:51:18.540Z,20.20
2018-05-14T08:53:46.126Z,20.20
2018-05-14T08:56:13.709Z,20.30
2018-05-14T08:58:41.304Z,20.50
2018-05-14T09:01:09.125Z,20.70
2018-05-14T09:03:36.713Z,20.80
2018-05-14T09:06:04.304Z,21.00
2018-05-14T09:08:31.912Z,21.00
2018-05-14T09:10:59.492Z,21.10
2018-05-14T09:13:27.052Z,21.20
2018-05-14T09:15:55.447Z,21.50
2018-05-14T09:18:23.056Z,21.40
2018-05-14T09:20:50.678Z,21.60
2018-05-14T09:23:18.258Z,21.70
2018-05-14T09:25:45.859Z,21.80
2018-05-14T09:28:13.469Z,22.00
2018-05-14T09:30:41.114Z,22.20
2018-05-14T09:33:08.724Z,22.40
2018-05-14T09:35:36.416Z,22.50
2018-05-14T09:38:04.804Z,22.90
2018-05-14T09:40:32.404Z,22.80
2018-05-14T09:43:00.002Z,23.00
2018-05-14T09:45:27.614Z,23.20
2018-05-14T09:47:55.194Z,23.30
2018-05-14T09:50:22.812Z,23.40
2018-05-14T09:52:51.152Z,23.90
2018-05-14T09:55:18.809Z,23.80
2018-05-14T09:57:46.384Z,24.10
2018-05-14T10:00:14.739Z,24.50
2018-05-14T10:02:42.341Z,24.40
2018-05-14T10:05:09.971Z,24.60
2018-05-14T10:07:38.365Z,25.10
2018-05-14T10:10:05.991Z,25.10
2018-05-14T10:12:33.610Z,25.50
2018-05-14T10:15:01.232Z,26.40
2018-05-14T10:17:29.597Z,27.70
2018-05-14T10:19:57.225Z,27.70
2018-05-14T10:22:24.849Z,28.00
2018-05-14T10:24:52.463Z,27.70
2018-05-14T10:27:20.144Z,28.30
2018-05-14T10:29:48.521Z,28.60
2018-05-14T10:32:16.937Z,28.60
2018-05-14T10:34:44.569Z,28.60
2018-05-14T10:37:12.191Z,28.60
2018-05-14T10:39:39.833Z,29.00
2018-05-14T10:42:07.459Z,29.30
2018-05-14T10:44:35.839Z,29.80
2018-05-14T10:47:03.464Z,29.80
2018-05-14T10:49:31.099Z,29.70
2018-05-14T10:51:58.696Z,29.80
2018-05-14T10:54:26.427Z,30.40
2018-05-14T10:56:54.031Z,30.50
2018-05-14T10:59:21.658Z,30.70
2018-05-14T11:01:49.271Z,30.80
2018-05-14T11:04:16.892Z,31.40
2018-05-14T11:06:44.695Z,31.70
2018-05-14T11:09:12.303Z,32.00
2018-05-14T11:11:39.924Z,31.80
2018-05-14T11:14:07.558Z,31.90
2018-05-14T11:16:35.916Z,32.10
2018-05-14T11:19:03.659Z,32.00
2018-05-14T11:21:31.277Z,32.10
2018-05-14T11:23:58.898Z,32.00
2018-05-14T11:26:26.573Z,32.80
2018-05-14T11:28:54.181Z,32.60
2018-05-14T11:31:21.780Z,32.30
2018-05-14T11:33:49.416Z,33.00
2018-05-14T11:36:17.009Z,32.60
2018-05-14T11:38:44.674Z,33.20
2018-05-14T11:41:12.274Z,34.10
2018-05-14T11:43:39.900Z,33.60
2018-05-14T11:46:08.294Z,34.40
2018-05-14T11:48:36.002Z,34.30
2018-05-14T11:51:03.613Z,33.70
2018-05-14T11:53:32.015Z,33.50
2018-05-14T11:55:59.888Z,33.50
2018-05-14T11:58:27.535Z,33.40
2018-05-14T12:00:55.129Z,34.00
2018-05-14T12:03:22.754Z,34.10
2018-05-14T12:05:50.480Z,34.20
2018-05-14T12:08:18.852Z,33.90
2018-05-14T12:10:47.246Z,33.70
2018-05-14T12:13:14.841Z,33.70
2018-05-14T12:15:42.493Z,34.00
2018-05-14T12:18:10.121Z,33.20
2018-05-14T12:20:37.737Z,33.60
2018-05-14T12:23:05.365Z,33.10
2018-05-14T12:25:33.011Z,33.10
2018-05-14T12:28:01.379Z,33.80
2018-05-14T12:30:28.975Z,33.80
2018-05-14T12:32:56.656Z,33.30
2018-05-14T12:35:24.263Z,32.80
2018-05-14T12:37:51.931Z,32.50
2018-05-14T12:40:20.355Z,33.70
2018-05-14T12:42:47.993Z,33.70
2018-05-14T12:45:15.632Z,34.00
2018-05-14T12:47:43.304Z,33.30
2018-05-14T12:50:10.979Z,33.40
2018-05-14T12:52:38.644Z,34.90
2018-05-14T12:55:06.251Z,36.00
2018-05-14T12:57:33.878Z,36.80
2018-05-14T13:00:01.541Z,37.00
2018-05-14T13:02:29.215Z,37.00
2018-05-14T13:04:57.065Z,35.50
2018-05-14T13:07:25.483Z,35.00
2018-05-14T13:09:53.175Z,34.70
2018-05-14T13:12:21.550Z,36.10
2018-05-14T13:14:49.261Z,36.10
2018-05-14T13:17:16.926Z,37.00
2018-05-14T13:19:44.571Z,37.60
2018-05-14T13:22:12.167Z,37.70
2018-05-14T13:24:40.038Z,37.80
2018-05-14T13:27:07.712Z,37.70
2018-05-14T13:29:35.478Z,38.20
2018-05-14T13:32:03.471Z,39.10
2018-05-14T13:34:31.085Z,38.80
2018-05-14T13:36:58.863Z,39.50
2018-05-14T13:39:26.476Z,38.90
2018-05-14T13:41:54.089Z,38.60
2018-05-14T13:44:23.411Z,38.70
2018-05-14T13:46:51.226Z,38.70
2018-05-14T13:49:18.882Z,37.80
2018-05-14T13:51:46.557Z,36.20
2018-05-14T13:54:14.169Z,36.80
2018-05-14T13:56:41.779Z,37.50
2018-05-14T13:59:09.414Z,37.80
2018-05-14T14:01:37.408Z,37.80
2018-05-14T14:04:05.026Z,37.40
2018-05-14T14:06:32.636Z,37.50
2018-05-14T14:09:00.382Z,38.80
2018-05-14T14:11:28.077Z,38.60
2018-05-14T14:13:56.370Z,38.40
2018-05-14T14:16:24.789Z,38.80
2018-05-14T14:18:52.705Z,38.70
2018-05-14T14:21:20.450Z,39.20
2018-05-14T14:23:48.370Z,39.50
2018-05-14T14:26:15.948Z,39.50
2018-05-14T14:28:43.747Z,39.60
2018-05-14T14:31:11.457Z,39.60
2018-05-14T14:33:39.091Z,39.90
2018-05-14T14:36:07.673Z,39.10
2018-05-14T14:38:35.976Z,39.80
2018-05-14T14:41:03.711Z,39.80
2018-05-14T14:43:32.140Z,39.30
2018-05-14T14:45:59.774Z,39.40
2018-05-14T14:48:27.429Z,40.10
2018-05-14T14:50:55.089Z,40.10
2018-05-14T14:53:23.498Z,39.40
2018-05-14T14:55:51.173Z,39.30
2018-05-14T14:58:18.844Z,37.20
2018-05-14T15:00:46.485Z,36.10
2018-05-14T15:03:14.150Z,36.80
2018-05-14T15:05:41.790Z,37.20
2018-05-14T15:08:09.407Z,38.00
2018-05-14T15:10:37.038Z,38.40
2018-05-14T15:13:04.671Z,39.10
2018-05-14T15:15:32.587Z,37.80
2018-05-14T15:18:00.213Z,35.50
2018-05-14T15:20:28.195Z,34.40
2018-05-14T15:22:56.691Z,33.30
2018-05-14T15:25:24.342Z,31.90
2018-05-14T15:27:51.986Z,30.80
2018-05-14T15:30:19.673Z,30.10
2018-05-14T15:32:47.325Z,30.10
2018-05-14T15:35:14.952Z,30.90
2018-05-14T15:37:42.577Z,31.80
2018-05-14T15:40:10.197Z,31.60
2018-05-14T15:42:38.838Z,30.70
2018-05-14T15:45:07.251Z,29.60
2018-05-14T15:47:34.877Z,29.60
2018-05-14T15:50:02.638Z,29.00
2018-05-14T15:52:30.481Z,28.80
2018-05-14T15:54:58.137Z,28.70
2018-05-14T15:57:25.859Z,28.30
2018-05-14T15:59:53.480Z,28.20
2018-05-14T16:02:21.109Z,27.70
2018-05-14T16:04:48.792Z,27.40
2018-05-14T16:07:16.455Z,27.10
2018-05-14T16:09:44.297Z,26.90
2018-05-14T16:12:11.929Z,26.50
2018-05-14T16:14:39.665Z,26.30
2018-05-14T16:17:07.190Z,26.10
2018-05-14T16:19:34.845Z,25.80
2018-05-14T16:22:02.471Z,25.90
2018-05-14T16:24:30.893Z,26.50
2018-05-14T16:26:58.532Z,26.40
2018-05-14T16:29:26.139Z,26.70
2018-05-14T16:31:54.600Z,27.20
2018-05-14T16:34:22.234Z,27.20
2018-05-14T16:36:49.968Z,27.70
2018-05-14T16:39:18.375Z,28.10
2018-05-14T16:41:46.015Z,28.10
2018-05-14T16:44:13.625Z,28.10
2018-05-14T16:46:41.387Z,27.60
2018-05-14T16:49:09.019Z,27.40
2018-05-14T16:51:36.619Z,27.10
2018-05-14T16:54:04.269Z,26.80
2018-05-14T16:56:31.915Z,26.70
2018-05-14T16:58:59.711Z,26.50
2018-05-14T17:01:27.381Z,26.40
2018-05-14T17:03:55.231Z,26.30
2018-05-14T17:06:22.939Z,26.20
2018-05-14T17:08:50.619Z,26.10
2018-05-14T17:11:18.239Z,26.00
2018-05-14T17:13:45.877Z,25.80
2018-05-14T17:16:13.643Z,25.60
2018-05-14T17:18:41.442Z,25.50
2018-05-14T17:21:09.089Z,25.40
2018-05-14T17:23:36.710Z,25.20
2018-05-14T17:26:04.343Z,24.90
2018-05-14T17:28:32.066Z,24.90
2018-05-14T17:30:59.689Z,24.90
2018-05-14T17:33:27.381Z,24.80
2018-05-14T17:35:55.143Z,24.70
2018-05-14T17:38:23.302Z,24.60
2018-05-14T17:40:50.934Z,24.50
2018-05-14T17:43:18.556Z,24.50
2018-05-14T17:45:46.511Z,24.40
2018-05-14T17:48:14.135Z,24.40
2018-05-14T17:50:41.795Z,24.30
2018-05-14T17:53:09.406Z,24.20
2018-05-14T17:55:37.040Z,24.10
2018-05-14T17:58:04.635Z,23.90
2018-05-14T18:00:32.262Z,23.90
2018-05-14T18:02:59.992Z,23.70
2018-05-14T18:05:28.368Z,23.50
2018-05-14T18:07:56.106Z,23.50
2018-05-14T18:10:23.719Z,23.40
2018-05-14T18:12:51.419Z,23.20
2018-05-14T18:15:19.019Z,23.20
2018-05-14T18:17:46.885Z,23.10
2018-05-14T18:20:19.999Z,22.90
2018-05-14T18:22:47.669Z,22.80
2018-05-14T18:25:20.921Z,22.60
2018-05-14T18:27:54.265Z,22.40
2018-05-14T18:30:27.568Z,22.30
2018-05-14T18:33:01.969Z,22.20
2018-05-14T18:35:35.097Z,22.10
2018-05-14T18:38:02.774Z,22.00
2018-05-14T18:40:31.348Z,21.70
2018-05-14T18:42:58.937Z,21.70
2018-05-14T18:45:26.623Z,21.60
2018-05-14T18:47:54.261Z,21.50
2018-05-14T18:50:22.174Z,21.30
2018-05-14T18:52:49.764Z,21.20
2018-05-14T18:55:17.557Z,21.10
2018-05-14T18:57:45.216Z,21.10
2018-05-14T19:00:13.684Z,20.80
2018-05-14T19:02:42.319Z,20.80
2018-05-14T19:05:09.967Z,20.70
2018-05-14T19:07:37.646Z,20.60
2018-05-14T19:10:10.940Z,20.50
2018-05-14T19:12:38.581Z,20.40
2018-05-14T19:15:11.617Z,20.20
2018-05-14T19:17:45.234Z,20.10
2018-05-14T19:20:12.862Z,20.00
2018-05-14T19:22:46.203Z,19.90
2018-05-14T19:25:14.243Z,19.70
2018-05-14T19:27:41.871Z,19.60
2018-05-14T19:30:09.616Z,19.40
2018-05-14T19:32:37.272Z,19.30
2018-05-14T19:35:10.599Z,19.40
2018-05-14T19:37:38.290Z,19.40
2018-05-14T19:40:11.467Z,21.60
2018-05-14T19:42:39.213Z,19.10
2018-05-14T19:45:07.153Z,18.80
2018-05-14T19:47:34.819Z,18.60
2018-05-14T19:50:02.422Z,18.40
2018-05-14T19:52:30.067Z,18.50
2018-05-14T19:54:57.803Z,18.40
2018-05-14T19:57:25.485Z,18.40
2018-05-14T19:59:53.115Z,18.30
2018-05-14T20:02:20.737Z,18.10
2018-05-14T20:04:48.360Z,18.00
2018-05-14T20:07:16.122Z,17.90
2018-05-14T20:09:43.724Z,17.80
2018-05-14T20:12:11.343Z,17.60
2018-05-14T20:14:38.946Z,17.40
2018-05-14T20:17:06.655Z,17.30
2018-05-14T20:19:34.414Z,17.10
2018-05-14T20:22:02.014Z,16.90
2018-05-14T20:24:29.671Z,16.90
2018-05-14T20:26:57.271Z,16.90
2018-05-14T20:29:24.966Z,16.70
2018-05-14T20:31:52.933Z,16.50
2018-05-14T20:34:20.562Z,16.30
2018-05-14T20:36:48.213Z,16.20
2018-05-14T20:39:15.855Z,16.10
2018-05-14T20:41:44.456Z,15.80
2018-05-14T20:44:12.883Z,15.60
2018-05-14T20:46:40.601Z,15.60
2018-05-14T20:49:09.095Z,15.30
2018-05-14T20:51:37.465Z,15.20
2018-05-14T20:54:05.086Z,15.20
2018-05-14T20:56:32.739Z,15.00
2018-05-14T20:59:00.483Z,14.90
2018-05-14T21:01:28.116Z,14.80
2018-05-14T21:03:55.926Z,14.80
2018-05-14T21:06:23.704Z,14.70
2018-05-14T21:08:51.313Z,14.60
2018-05-14T21:11:18.988Z,14.50
2018-05-14T21:13:46.800Z,14.40
2018-05-14T21:16:14.409Z,14.30
2018-05-14T21:18:42.065Z,14.10
2018-05-14T21:21:09.667Z,14.10
2018-05-14T21:23:37.493Z,14.20
2018-05-14T21:26:05.085Z,14.00
2018-05-14T21:28:32.711Z,13.90
2018-05-14T21:31:00.334Z,13.90
2018-05-14T21:33:28.141Z,13.90
2018-05-14T21:35:55.727Z,13.80
2018-05-14T21:38:23.353Z,13.70
2018-05-14T21:40:51.725Z,13.60
2018-05-14T21:43:19.422Z,13.60
2018-05-14T21:45:47.200Z,13.60
2018-05-14T21:48:14.784Z,13.50
2018-05-14T21:50:42.368Z,13.50
2018-05-14T21:53:10.216Z,13.40
2018-05-14T21:55:37.830Z,13.40
2018-05-14T21:58:05.392Z,13.30
2018-05-14T22:00:33.013Z,13.10
2018-05-14T22:03:00.658Z,13.10
2018-05-14T22:05:28.421Z,12.90
2018-05-14T22:07:56.012Z,12.80
2018-05-14T22:10:23.585Z,12.70
2018-05-14T22:12:51.199Z,12.60
2018-05-14T22:15:18.781Z,12.60
2018-05-14T22:17:46.403Z,12.60
2018-05-14T22:20:14.181Z,12.50
2018-05-14T22:25:15.804Z,12.50
2018-05-14T22:27:43.372Z,12.50
2018-05-14T22:30:11.044Z,12.60
2018-05-14T22:32:38.722Z,12.60
2018-05-14T22:35:06.381Z,12.50
2018-05-14T22:37:33.977Z,12.40
2018-05-14T22:40:02.353Z,12.30
2018-05-14T22:42:30.254Z,12.30
2018-05-14T22:44:57.854Z,12.20
2018-05-14T22:47:25.450Z,12.10
2018-05-14T22:49:53.046Z,12.00
2018-05-14T22:52:20.654Z,12.00
2018-05-14T22:54:48.280Z,11.90
2018-05-14T22:57:15.991Z,11.90
2018-05-14T22:59:43.566Z,11.80
2018-05-14T23:02:11.143Z,11.80
2018-05-14T23:04:38.747Z,11.80
2018-05-14T23:07:06.340Z,11.80
2018-05-14T23:09:34.083Z,11.70
2018-05-14T23:12:01.647Z,11.70
2018-05-14T23:14:30.055Z,11.60
2018-05-14T23:16:57.616Z,11.60
2018-05-14T23:19:25.230Z,11.60
2018-05-14T23:21:52.816Z,11.40
2018-05-14T23:24:20.503Z,11.30
2018-05-14T23:26:48.087Z,11.30
2018-05-14T23:29:15.661Z,11.20
2018-05-14T23:31:43.683Z,11.20
2018-05-14T23:34:11.450Z,11.20
2018-05-14T23:36:39.048Z,11.20
2018-05-14T23:39:06.628Z,11.20
2018-05-14T23:41:34.282Z,11.10
2018-05-14T23:44:01.860Z,10.90
2018-05-14T23:46:30.204Z,10.90
2018-05-14T23:48:57.792Z,10.90
2018-05-14T23:51:26.131Z,10.80
2018-05-14T23:53:53.716Z,10.80
2018-05-14T23:56:21.283Z,10.80
2018-05-14T23:58:48.886Z,10.70
